Westbury, TX

3:52 PM CST on January 24, 2017 (GMT -0600)
MUR145 | | Change Station
Active Advisory: Flood Warning

Elev 39 ft 30.12 °N, 94.35 °W | Updated 34 minutes ago

Mostly Cloudy
Mostly Cloudy
73.0 °F
Feels Like 73.0 °F
N
-
Wind Variable Wind from North

Today
High -- | Low -- °F
--% Chance of Precip.
Yesterday
High -- | Low -- °F
Precip. -- in
Pressure 29.79 in
Visibility 10.0 miles
Clouds Mostly Cloudy 3100 ft
Mostly Cloudy 3600 ft
Dew Point Not available.
Humidity Not available.
Rainfall in
Snow Depth Not available.
7:11 AM 5:47 PM
Waning Crescent, 9% visible
METAR KBMT 242135Z AUTO 18009G17KT 10SM BKN031 BKN036 24/16 A2979 RMK AO2 T02380156
Pressure 29.79 in
Visibility 10.0 miles
Clouds Mostly Cloudy 3100 ft
Mostly Cloudy 3600 ft
Dew Point Not available.
Humidity Not available.
Rainfall in
Snow Depth Not available.
7:11 AM 5:47 PM
Waning Crescent, 9% visible
METAR KBMT 242135Z AUTO 18009G17KT 10SM BKN031 BKN036 24/16 A2979 RMK AO2 T02380156

Get Your Daily Forecast Email!

Thanks for signing up!

Be on the lookout for a verification email in your inbox.

You'll start receiving the daily forecast at 8 AM.

×

10-Day Weather Forecast

Almanac

Astronomy

Jan. 24, 2017 Rise Set
Actual Time
Civil Twilight
Nautical Twilight
Astronomical Twilight
Moon
Length of Visible Light
Length of Day
Tomorrow will be .
, % of the Moon is Illuminated

Today's Extremes

State Highs State Lows

Community

WunderPhotos

Upload Photos

1,962,540 photos uploaded!

WunderBlog® & News

Nearby

Air Quality

  Air Quality AQ Index Pollutant
Not available.

Snow Depth

Station Depth Elevation

Earthquake Activity

City Distance Mag. Time & Date
Minimum magnitude displayed is 2.5.

Coastal Water Temperatures

Place Temperature

Stations

Nearby Weather Stations

Station Location Temp. Windchill Dew Point Humidity Wind Precip. Elev Updated Type
                   

Watches & Warnings

Flood Warning
Issued: 10:57 AM CST Jan. 24, 2017 – National Weather Service

The Flood Warning continues for
the Pine Island Bayou near Sour Lake.
* Until Thursday morning... or until the warning is cancelled.
* At 9:45 am Tuesday the stage was 25.8 feet.
* Minor flooding is occurring and minor flooding is forecast.
* Flood stage is 25.0 feet.
* Forecast... the river will continue to fall to below flood stage by
tomorrow late evening.
* Impact... at stages near 25.0 feet... water inundates roads in
lowland areas near the river. Low spots on old Sour Lake Road are
under water.
* Impact... at stages near 22.0 feet... river is at bankfull stage.


Lat... Lon 3012 9445 3024 9423 3021 9407 3013 9406 3004 9445